Time;durP1;ratioP1;P1;durP2;ratioP2;P2;SDS_P1;SDS_P2;PMS_P1;PMS_P2;Temp;Humidity;BMP_temperature;BMP_pressure;BME280_temperature;BME280_humidity;BME280_pressure;Samples;Min_cycle;Max_cycle;Signal;HPM_P1;HPM_P2
2022/04/20 00:01:18;;;;;;;;;;;;;;;4.70;59.44;99501.53;4318618;33;20008;-89
2022/04/20 00:03:43;;;;;;;;;;;;;;;5.03;59.46;99492.53;4319924;33;19980;-89
2022/04/20 00:06:08;;;;;;;;;;;;;;;4.82;59.45;99491.09;4306492;33;20290;-91
2022/04/20 00:08:34;;;;;;;;;;;;;;;4.70;59.44;99499.81;4318729;33;19976;-88
2022/04/20 00:10:59;;;;;;;;;;;;;;;4.69;59.44;99497.25;4319822;33;20598;-88
2022/04/20 00:13:24;;;;;;;;;;;;;;;4.77;59.44;99498.87;4318611;33;19996;-89
2022/04/20 00:15:50;;;;;;;;;;;;;;;4.82;59.45;99491.94;4306521;33;20015;-89
2022/04/20 00:18:15;;;;;;;;;;;;;;;4.81;59.46;99490.22;4305973;33;24006;-89
2022/04/20 00:20:40;;;;;;;;;;;;;;;4.92;59.45;99490.94;4318575;33;20338;-89
2022/04/20 00:23:05;;;;;;;;;;;;;;;4.88;59.46;99494.44;4306373;33;20262;-89
2022/04/20 00:25:31;;;;;;;;;;;;;;;4.92;59.45;99497.81;4305258;33;20003;-89
2022/04/20 00:27:56;;;;;;;;;;;;;;;4.91;59.46;99490.94;4306357;33;20027;-89
2022/04/20 00:30:21;;;;;;;;;;;;;;;4.80;59.45;99492.84;4305633;33;31424;-89
2022/04/20 00:32:46;;;;;;;;;;;;;;;4.97;59.46;99493.47;4306174;33;20150;-88
2022/04/20 00:35:11;;;;;;;;;;;;;;;4.83;59.45;99488.50;4305759;33;29264;-89
2022/04/20 00:37:37;;;;;;;;;;;;;;;4.99;59.46;99484.00;4318440;33;20307;-89
2022/04/20 00:40:02;;;;;;;;;;;;;;;5.00;59.46;99492.56;4306082;33;20011;-90
2022/04/20 00:42:28;;;;;;;;;;;;;;;5.29;59.47;99494.75;4318552;33;20002;-89
2022/04/20 00:44:54;;;;;;;;;;;;;;;5.12;59.47;99493.25;4306210;33;19972;-89
2022/04/20 00:47:19;;;;;;;;;;;;;;;5.05;59.46;99488.19;4306141;33;20365;-90
2022/04/20 00:49:45;;;;;;;;;;;;;;;5.07;59.46;99489.03;4306215;33;20011;-89
2022/04/20 00:52:11;;;;;;;;;;;;;;;5.22;59.47;99499.16;4306299;33;20000;-89
2022/04/20 00:54:36;;;;;;;;;;;;;;;5.15;59.46;99493.19;4306082;33;19976;-89
2022/04/20 00:57:02;;;;;;;;;;;;;;;4.98;59.46;99492.59;4306149;33;20021;-88
2022/04/20 00:59:28;;;;;;;;;;;;;;;5.13;59.47;99499.25;4318391;33;19980;-89
2022/04/20 01:01:53;;;;;;;;;;;;;;;4.82;59.45;99506.56;4306310;33;20293;-89
2022/04/20 01:04:18;;;;;;;;;;;;;;;4.91;59.45;99503.84;4318315;33;19998;-89
2022/04/20 01:06:44;;;;;;;;;;;;;;;4.91;59.45;99502.12;4306019;33;20041;-88
2022/04/20 01:09:09;;;;;;;;;;;;;;;4.86;59.45;99506.50;4318204;33;20028;-89
2022/04/20 01:11:35;;;;;;;;;;;;;;;4.88;59.46;99502.16;4305483;33;26927;-89
2022/04/20 01:14:00;;;;;;;;;;;;;;;4.78;59.44;99503.16;4317835;33;20030;-88
2022/04/20 01:16:25;;;;;;;;;;;;;;;4.82;59.45;99497.09;4305915;33;20014;-89
2022/04/20 01:18:51;;;;;;;;;;;;;;;4.94;59.46;99503.81;4306016;33;19992;-89
2022/04/20 01:21:16;;;;;;;;;;;;;;;4.74;59.45;99504.09;4319442;33;20027;-89
2022/04/20 01:23:42;;;;;;;;;;;;;;;4.76;59.44;99506.66;4317898;33;19976;-88
2022/04/20 01:26:08;;;;;;;;;;;;;;;4.70;59.44;99511.84;4305754;33;20040;-89
2022/04/20 01:28:33;;;;;;;;;;;;;;;4.84;59.44;99507.38;4319136;33;19980;-88
2022/04/20 01:30:59;;;;;;;;;;;;;;;4.92;59.45;99505.56;4317884;33;20016;-89
2022/04/20 01:33:24;;;;;;;;;;;;;;;4.84;59.44;99509.97;4319004;33;19980;-89
2022/04/20 01:35:49;;;;;;;;;;;;;;;4.73;59.45;99511.81;4318496;33;25199;-89
2022/04/20 01:38:14;;;;;;;;;;;;;;;4.69;59.44;99520.47;4306852;33;20043;-89
2022/04/20 01:40:40;;;;;;;;;;;;;;;4.67;59.44;99517.91;4320848;33;19999;-89
2022/04/20 01:43:05;;;;;;;;;;;;;;;4.42;59.43;99522.47;4319667;33;19991;-89
2022/04/20 01:45:31;;;;;;;;;;;;;;;4.50;59.43;99515.53;4319574;33;20277;-89
2022/04/20 01:47:56;;;;;;;;;;;;;;;4.29;59.42;99521.78;4331323;33;20023;-89
2022/04/20 01:50:21;;;;;;;;;;;;;;;4.40;59.42;99515.63;4334961;33;21797;-88
2022/04/20 01:52:49;;;;;;;;;;;;;;;4.45;59.42;99522.44;4321814;33;20341;-89
2022/04/20 01:55:18;;;;;;;;;;;;;;;4.42;59.43;99517.31;4309747;33;20002;-89
2022/04/20 01:57:43;;;;;;;;;;;;;;;4.48;59.43;99526.72;4322026;33;19996;-89
2022/04/20 02:00:10;;;;;;;;;;;;;;;4.43;59.43;99515.59;4335282;33;19984;-89
2022/04/20 02:02:35;;;;;;;;;;;;;;;4.62;59.44;99511.94;4309981;33;19944;-91
2022/04/20 02:05:02;;;;;;;;;;;;;;;4.53;59.43;99507.78;4321931;33;20055;-89
2022/04/20 02:07:27;;;;;;;;;;;;;;;4.57;59.44;99511.16;4309758;33;19991;-89
2022/04/20 02:09:53;;;;;;;;;;;;;;;4.40;59.42;99507.91;4321770;33;19991;-89
2022/04/20 02:12:18;;;;;;;;;;;;;;;4.34;59.41;99515.72;4322106;33;19995;-89
2022/04/20 02:14:44;;;;;;;;;;;;;;;4.28;59.42;99508.91;4309372;33;19984;-89
2022/04/20 02:17:09;;;;;;;;;;;;;;;4.35;59.42;99505.37;4309696;33;19987;-89
2022/04/20 02:19:34;;;;;;;;;;;;;;;4.37;59.43;99511.38;4321845;33;19992;-89
2022/04/20 02:21:59;;;;;;;;;;;;;;;3.95;59.40;99510.06;4321813;33;20015;-89
2022/04/20 02:24:25;;;;;;;;;;;;;;;4.24;59.42;99510.63;4334468;33;31894;-89
2022/04/20 02:26:50;;;;;;;;;;;;;;;4.23;59.42;99503.78;4321650;33;20038;-89
2022/04/20 02:29:15;;;;;;;;;;;;;;;4.20;59.42;99510.69;4309474;33;20027;-89
2022/04/20 02:31:40;;;;;;;;;;;;;;;4.22;59.41;99503.78;4309534;33;20014;-88
2022/04/20 02:34:05;;;;;;;;;;;;;;;4.14;59.41;99509.03;4321714;33;19976;-89
2022/04/20 02:36:31;;;;;;;;;;;;;;;4.13;59.41;99514.19;4309449;33;20257;-89
2022/04/20 02:38:56;;;;;;;;;;;;;;;4.03;59.40;99505.72;4309530;33;20012;-89
2022/04/20 02:41:22;;;;;;;;;;;;;;;3.97;59.39;99509.19;4321528;33;19980;-89
2022/04/20 02:43:48;;;;;;;;;;;;;;;3.78;59.39;99517.09;4334381;33;27034;-89
2022/04/20 02:46:13;;;;;;;;;;;;;;;3.98;59.41;99512.63;4321590;33;20321;-89
2022/04/20 02:48:38;;;;;;;;;;;;;;;4.01;59.40;99508.28;4308719;33;19995;-89
2022/04/20 02:51:03;;;;;;;;;;;;;;;3.91;59.40;99513.53;4321507;33;19976;-88
2022/04/20 02:53:29;;;;;;;;;;;;;;;4.17;59.41;99505.56;4321141;33;24905;-88
2022/04/20 02:55:54;;;;;;;;;;;;;;;4.10;59.41;99509.09;4309425;33;20446;-89
2022/04/20 02:58:19;;;;;;;;;;;;;;;4.12;59.40;99507.34;4320832;33;31547;-88
2022/04/20 03:00:45;;;;;;;;;;;;;;;4.10;59.40;99515.09;4309304;33;19998;-88
2022/04/20 03:03:12;;;;;;;;;;;;;;;3.98;59.40;99513.47;4309486;33;19971;-89
2022/04/20 03:05:37;;;;;;;;;;;;;;;4.19;59.40;99514.13;4321354;33;20301;-89
2022/04/20 03:08:02;;;;;;;;;;;;;;;3.97;59.39;99516.91;4334891;33;19996;-88
2022/04/20 03:10:28;;;;;;;;;;;;;;;4.24;59.42;99514.94;4321561;33;19975;-88
2022/04/20 03:12:53;;;;;;;;;;;;;;;4.00;59.40;99518.59;4309249;33;19994;-89
2022/04/20 03:15:18;;;;;;;;;;;;;;;4.01;59.40;99525.47;4334887;33;20003;-89
2022/04/20 03:17:43;;;;;;;;;;;;;;;4.17;59.41;99518.44;4309291;33;20266;-88
2022/04/20 03:20:09;;;;;;;;;;;;;;;4.06;59.41;99522.88;4309292;33;20023;-89
2022/04/20 03:22:34;;;;;;;;;;;;;;;3.91;59.40;99523.84;4309174;33;20333;-89
2022/04/20 03:25:00;;;;;;;;;;;;;;;3.99;59.41;99519.47;4321233;33;20399;-88
2022/04/20 03:27:25;;;;;;;;;;;;;;;4.05;59.41;99519.44;4321413;33;20024;-89
2022/04/20 03:29:50;;;;;;;;;;;;;;;4.00;59.40;99522.03;4309172;33;20324;-90
2022/04/20 03:32:15;;;;;;;;;;;;;;;4.05;59.41;99527.16;4321229;33;20023;-89
2022/04/20 03:34:41;;;;;;;;;;;;;;;4.11;59.41;99528.81;4309016;33;20010;-88
2022/04/20 03:37:06;;;;;;;;;;;;;;;4.15;59.41;99527.91;4309058;33;20013;-88
2022/04/20 03:39:34;;;;;;;;;;;;;;;4.30;59.42;99526.06;4309103;33;19995;-88
2022/04/20 03:41:59;;;;;;;;;;;;;;;4.50;59.42;99532.72;4321316;33;19984;-88
2022/04/20 03:44:25;;;;;;;;;;;;;;;4.35;59.42;99536.31;4308960;33;20243;-89
2022/04/20 03:46:51;;;;;;;;;;;;;;;4.31;59.41;99538.06;4318893;33;20083;-89
2022/04/20 03:49:17;;;;;;;;;;;;;;;4.32;59.42;99536.34;4306477;33;19980;-88
2022/04/20 03:51:43;;;;;;;;;;;;;;;4.40;59.42;99538.84;4306244;33;20399;-89
2022/04/20 03:54:08;;;;;;;;;;;;;;;4.47;59.43;99535.31;4306561;33;19993;-89
2022/04/20 03:59:17;;;;;;;;;;;;;;;4.52;59.43;99529.25;4318928;33;19991;-89
2022/04/20 04:01:43;;;;;;;;;;;;;;;4.60;59.44;99534.31;4317540;33;20031;-89
2022/04/20 04:04:08;;;;;;;;;;;;;;;4.58;59.44;99534.34;4305764;33;30167;-89
2022/04/20 04:06:33;;;;;;;;;;;;;;;4.79;59.45;99533.25;4318203;33;21824;-89
2022/04/20 04:08:59;;;;;;;;;;;;;;;4.71;59.43;99540.19;4306476;33;19980;-89
2022/04/20 04:11:24;;;;;;;;;;;;;;;4.74;59.45;99537.59;4306317;33;19998;-89
2022/04/20 04:13:49;;;;;;;;;;;;;;;4.77;59.44;99547.03;4306271;33;19988;-89
2022/04/20 04:16:14;;;;;;;;;;;;;;;4.60;59.43;99536.91;4318582;33;20012;-89
2022/04/20 04:18:40;;;;;;;;;;;;;;;4.83;59.45;99541.78;4306229;33;20009;-89
2022/04/20 04:21:05;;;;;;;;;;;;;;;4.90;59.45;99544.25;4306454;33;19976;-89
2022/04/20 04:23:30;;;;;;;;;;;;;;;5.04;59.46;99546.69;4306394;33;20390;-89
2022/04/20 04:25:55;;;;;;;;;;;;;;;5.22;59.46;99543.00;4317918;33;24663;-89
2022/04/20 04:28:21;;;;;;;;;;;;;;;5.23;59.47;99545.56;4318365;33;19996;-90
2022/04/20 04:30:46;;;;;;;;;;;;;;;5.39;59.49;99550.50;4319837;33;19975;-88
2022/04/20 04:33:11;;;;;;;;;;;;;;;5.59;59.49;99555.38;4318325;33;19980;-88
2022/04/20 04:35:37;;;;;;;;;;;;;;;5.46;59.48;99554.72;4318531;33;20011;-88
2022/04/20 04:38:02;;;;;;;;;;;;;;;5.57;59.49;99557.97;4306314;33;20256;-88
2022/04/20 04:40:27;;;;;;;;;;;;;;;5.65;59.49;99558.72;4319791;33;19983;-89
2022/04/20 04:42:52;;;;;;;;;;;;;;;5.66;59.49;99557.84;4319779;33;20024;-89
2022/04/20 04:50:46;;;;;;;;;;;;;;;5.65;59.50;99557.84;4334357;33;19990;-88
2022/04/20 04:53:11;;;;;;;;;;;;;;;5.65;59.50;99563.88;4334093;33;19972;-88
2022/04/20 04:55:37;;;;;;;;;;;;;;;5.79;59.50;99558.50;4334194;33;19995;-88
2022/04/20 04:58:02;;;;;;;;;;;;;;;5.76;59.51;99562.00;4334111;33;20020;-89
2022/04/20 05:00:28;;;;;;;;;;;;;;;5.87;59.50;99565.25;4334125;33;19995;-88
2022/04/20 05:02:53;;;;;;;;;;;;;;;5.87;59.51;99567.84;4308523;33;19996;-88
2022/04/20 05:05:18;;;;;;;;;;;;;;;6.02;59.51;99569.34;4334245;33;19998;-89
2022/04/20 05:07:44;;;;;;;;;;;;;;;6.04;59.51;99565.00;4308512;33;19980;-88
2022/04/20 05:10:09;;;;;;;;;;;;;;;5.96;59.51;99563.44;4320693;33;20254;-88
2022/04/20 05:12:34;;;;;;;;;;;;;;;6.14;59.53;99565.69;4320001;33;19988;-89
2022/04/20 05:15:01;;;;;;;;;;;;;;;6.20;59.53;99573.38;4320621;33;20031;-88
2022/04/20 05:17:26;;;;;;;;;;;;;;;6.48;59.54;99573.72;4320611;33;20322;-89
2022/04/20 05:19:51;;;;;;;;;;;;;;;6.30;59.53;99574.91;4308317;33;19994;-89
2022/04/20 05:22:16;;;;;;;;;;;;;;;6.50;59.53;99571.12;4320576;33;20318;-89
2022/04/20 05:24:42;;;;;;;;;;;;;;;6.43;59.54;99570.38;4320214;33;20027;-89
2022/04/20 05:27:08;;;;;;;;;;;;;;;6.65;59.54;99574.28;4319851;33;26983;-89
2022/04/20 05:29:33;;;;;;;;;;;;;;;6.91;59.57;99576.38;4308262;33;19999;-89
2022/04/20 05:31:59;;;;;;;;;;;;;;;6.97;59.57;99571.06;4307811;33;27782;-89
2022/04/20 05:34:26;;;;;;;;;;;;;;;6.87;59.56;99572.13;4320281;33;19998;-89
2022/04/20 05:42:20;;;;;;;;;;;;;;;7.01;59.56;99574.44;4333722;33;20056;-89
2022/04/20 05:44:47;;;;;;;;;;;;;;;7.21;59.58;99576.59;4333617;33;19980;-89
2022/04/20 05:47:12;;;;;;;;;;;;;;;7.23;59.58;99577.44;4319927;33;19984;-89
2022/04/20 05:49:37;;;;;;;;;;;;;;;7.48;59.60;99577.75;4333162;33;21405;-88
2022/04/20 05:52:02;;;;;;;;;;;;;;;7.54;59.61;99570.69;4320219;33;20303;-88
2022/04/20 05:54:28;;;;;;;;;;;;;;;7.64;59.60;99577.38;4319929;33;20018;-89
2022/04/20 05:56:53;;;;;;;;;;;;;;;7.83;59.61;99574.37;4307764;33;19983;-89
2022/04/20 05:59:18;;;;;;;;;;;;;;;7.83;59.62;99574.37;4320135;33;19976;-88
2022/04/20 06:01:44;;;;;;;;;;;;;;;7.87;59.62;99570.81;4333574;33;19983;-89
2022/04/20 06:04:09;;;;;;;;;;;;;;;8.15;59.64;99569.25;4320046;33;20004;-88
2022/04/20 06:06:34;;;;;;;;;;;;;;;8.21;59.63;99573.41;4307480;33;19988;-89
2022/04/20 06:09:00;;;;;;;;;;;;;;;8.43;59.65;99566.81;4307674;33;19998;-89
2022/04/20 06:11:26;;;;;;;;;;;;;;;8.68;59.67;99561.81;4307746;33;20032;-89
2022/04/20 06:13:51;;;;;;;;;;;;;;;8.72;59.67;99560.84;4319928;33;19999;-89
2022/04/20 06:16:16;;;;;;;;;;;;;;;8.97;59.69;99566.19;4307641;33;20002;-89
2022/04/20 06:18:42;;;;;;;;;;;;;;;9.17;59.69;99555.25;4307701;33;19986;-89
2022/04/20 06:21:07;;;;;;;;;;;;;;;9.23;59.70;99553.34;4319776;33;19998;-90
2022/04/20 06:23:32;;;;;;;;;;;;;;;9.29;59.70;99552.28;4319480;33;20357;-89
2022/04/20 06:25:57;;;;;;;;;;;;;;;9.46;59.70;99547.44;4309486;33;20283;-89
2022/04/20 06:28:24;;;;;;;;;;;;;;;9.53;59.71;99561.94;4309668;33;19984;-90
2022/04/20 06:30:49;;;;;;;;;;;;;;;9.88;59.73;99552.19;4309772;33;19992;-89
2022/04/20 06:33:14;;;;;;;;;;;;;;;9.93;59.73;99552.03;4309625;33;19987;-90
2022/04/20 06:35:39;;;;;;;;;;;;;;;10.11;59.74;99547.06;4309544;33;19986;-90
2022/04/20 06:38:05;;;;;;;;;;;;;;;10.32;59.76;99549.88;4309716;33;20031;-90
2022/04/20 06:40:30;;;;;;;;;;;;;;;10.32;59.76;99539.47;4309266;33;25690;-89
2022/04/20 06:42:55;;;;;;;;;;;;;;;10.41;59.76;99542.63;4309459;33;20007;-90
2022/04/20 06:45:20;;;;;;;;;;;;;;;10.50;59.77;99538.84;4321545;33;20034;-90
2022/04/20 06:47:45;;;;;;;;;;;;;;;10.40;59.76;99534.84;4309594;33;20361;-89
2022/04/20 06:50:11;;;;;;;;;;;;;;;10.62;59.78;99530.59;4309158;33;20002;-89
2022/04/20 07:00:48;;;;;;;;;;;;;;;10.87;59.79;99527.09;4323841;33;19994;-90
2022/04/20 07:03:13;;;;;;;;;;;;;;;10.96;59.79;99518.97;4309306;33;19991;-89
2022/04/20 07:05:38;;;;;;;;;;;;;;;11.13;59.79;99515.75;4321733;33;20000;-90
2022/04/20 07:08:04;;;;;;;;;;;;;;;11.00;59.79;99525.75;4321067;33;28155;-90
2022/04/20 07:10:31;;;;;;;;;;;;;;;11.24;59.80;99516.16;4309700;33;19991;-91
2022/04/20 07:12:56;;;;;;;;;;;;;;;11.25;59.81;99516.09;4309808;33;20004;-90
2022/04/20 07:15:21;;;;;;;;;;;;;;;11.37;59.81;99518.25;4309220;33;20016;-89
2022/04/20 07:17:46;;;;;;;;;;;;;;;11.47;59.82;99510.91;4309370;33;20003;-89
2022/04/20 07:20:17;;;;;;;;;;;;;;;11.58;59.82;99510.47;4309362;33;20357;-89
2022/04/20 07:22:53;;;;;;;;;;;;;;;11.65;59.83;99514.56;4309964;33;20018;-90
2022/04/20 07:25:19;;;;;;;;;;;;;;;11.83;59.84;99513.84;4309527;33;20002;-91
2022/04/20 07:27:46;;;;;;;;;;;;;;;11.85;59.84;99506.81;4309151;33;19988;-90
2022/04/20 07:30:12;;;;;;;;;;;;;;;11.84;59.84;99515.53;4309522;33;19988;-91
2022/04/20 07:32:37;;;;;;;;;;;;;;;12.04;59.85;99506.88;4321576;33;20005;-90
2022/04/20 07:35:02;;;;;;;;;;;;;;;12.19;59.85;99514.06;4308490;33;26570;-90
2022/04/20 07:37:28;;;;;;;;;;;;;;;12.30;59.87;99511.00;4321585;33;20250;-91
2022/04/20 07:39:53;;;;;;;;;;;;;;;12.39;59.87;99507.16;4309120;33;20033;-89
2022/04/20 07:42:20;;;;;;;;;;;;;;;12.39;59.87;99508.00;4309314;33;20170;-90
2022/04/20 07:44:45;;;;;;;;;;;;;;;12.60;59.88;99504.47;4321511;33;19987;-90
2022/04/20 07:47:10;;;;;;;;;;;;;;;12.77;59.88;99514.13;4334058;33;33161;-89
2022/04/20 07:52:20;;;;;;;;;;;;;;;12.75;59.89;99510.75;4319225;33;20098;-91
2022/04/20 07:54:45;;;;;;;;;;;;;;;12.73;59.89;99516.94;4306280;33;25665;-90
2022/04/20 07:57:14;;;;;;;;;;;;;;;12.79;59.89;99512.31;4318931;33;20034;-90
2022/04/20 07:59:39;;;;;;;;;;;;;;;13.00;59.91;99518.31;4306780;33;20009;-90
2022/04/20 08:02:04;;;;;;;;;;;;;;;13.01;59.90;99511.31;4319052;33;20004;-91
2022/04/20 08:04:30;;;;;;;;;;;;;;;13.06;59.91;99515.44;4318891;33;19995;-90
2022/04/20 08:06:55;;;;;;;;;;;;;;;12.99;59.90;99516.62;4320278;33;20334;-90
2022/04/20 08:09:20;;;;;;;;;;;;;;;12.99;59.90;99511.41;4318662;33;20032;-92
2022/04/20 08:11:45;;;;;;;;;;;;;;;13.07;59.91;99505.84;4306870;33;20008;-90
2022/04/20 08:14:11;;;;;;;;;;;;;;;13.01;59.90;99506.97;4306620;33;20012;-92
2022/04/20 08:16:36;;;;;;;;;;;;;;;12.90;59.90;99499.63;4306826;33;20002;-91
2022/04/20 08:19:01;;;;;;;;;;;;;;;12.99;59.90;99498.34;4306705;33;19980;-91
2022/04/20 08:21:27;;;;;;;;;;;;;;;13.05;59.91;99499.84;4318905;33;19988;-91
2022/04/20 08:23:52;;;;;;;;;;;;;;;13.07;59.91;99498.84;4306519;33;20361;-90
2022/04/20 08:26:17;;;;;;;;;;;;;;;13.28;59.92;99483.13;4318381;33;20019;-91
2022/04/20 08:28:43;;;;;;;;;;;;;;;13.31;59.92;99493.44;4318738;33;19996;-91
2022/04/20 08:31:08;;;;;;;;;;;;;;;13.63;59.94;99487.50;4306196;33;24665;-90
2022/04/20 08:33:33;;;;;;;;;;;;;;;13.79;59.95;99479.75;4318561;33;19991;-91
2022/04/20 08:35:58;;;;;;;;;;;;;;;13.99;59.96;99478.78;4306781;33;19988;-91
2022/04/20 08:38:24;;;;;;;;;;;;;;;14.12;59.97;99479.84;4318783;33;20003;-90
2022/04/20 08:40:49;;;;;;;;;;;;;;;14.20;59.97;99480.31;4319933;33;19980;-91
2022/04/20 08:43:14;;;;;;;;;;;;;;;14.47;59.98;99483.31;4306599;33;20303;-91
2022/04/20 08:45:41;;;;;;;;;;;;;;;14.61;59.99;99485.19;4318504;33;19980;-91
2022/04/20 08:48:06;;;;;;;;;;;;;;;14.74;60.00;99483.63;4322082;33;19995;-91
2022/04/20 08:50:32;;;;;;;;;;;;;;;14.64;60.00;99485.00;4309055;33;20019;-90
2022/04/20 08:52:58;;;;;;;;;;;;;;;14.86;60.00;99482.94;4309198;33;19984;-92
2022/04/20 08:55:23;;;;;;;;;;;;;;;14.87;60.01;99481.16;4309179;33;19980;-91
2022/04/20 08:57:49;;;;;;;;;;;;;;;14.86;60.00;99476.84;4309501;33;20274;-92
2022/04/20 09:00:20;;;;;;;;;;;;;;;15.16;60.03;99475.22;4309097;33;20342;-91
2022/04/20 09:02:46;;;;;;;;;;;;;;;15.14;60.02;99469.22;4309323;33;20028;-92
2022/04/20 09:05:11;;;;;;;;;;;;;;;15.20;60.03;99466.25;4309006;33;20035;-93
2022/04/20 09:07:37;;;;;;;;;;;;;;;15.03;60.02;99471.56;4308719;33;20014;-92
2022/04/20 09:10:02;;;;;;;;;;;;;;;14.98;60.02;99473.59;4308801;33;20008;-91
2022/04/20 09:12:28;;;;;;;;;;;;;;;15.13;60.03;99469.28;4308657;33;20298;-91
2022/04/20 09:14:53;;;;;;;;;;;;;;;15.19;60.02;99464.56;4308670;33;19988;-90
2022/04/20 09:17:22;;;;;;;;;;;;;;;15.13;60.02;99470.09;4308700;33;20003;-92
2022/04/20 09:19:48;;;;;;;;;;;;;;;15.18;60.03;99475.13;4308726;33;20021;-91
2022/04/20 09:22:26;;;;;;;;;;;;;;;15.20;60.02;99463.62;4320853;33;19976;-91
2022/04/20 09:24:59;;;;;;;;;;;;;;;15.52;60.04;99469.69;4320796;33;20325;-91
2022/04/20 09:27:27;;;;;;;;;;;;;;;15.55;60.05;99453.75;4308667;33;19988;-92
2022/04/20 09:29:54;;;;;;;;;;;;;;;15.56;60.05;99457.22;4320985;33;19991;-91
2022/04/20 09:32:29;;;;;;;;;;;;;;;15.47;60.03;99449.88;4308713;33;20050;-92
2022/04/20 09:34:56;;;;;;;;;;;;;;;15.37;60.04;99462.66;4320736;33;19984;-92
2022/04/20 09:37:22;;;;;;;;;;;;;;;15.60;60.04;99456.12;4308561;33;20633;-92
2022/04/20 09:39:47;;;;;;;;;;;;;;;15.36;60.03;99453.94;4308685;33;20016;-92
2022/04/20 09:42:13;;;;;;;;;;;;;;;15.64;60.05;99449.81;4321015;33;19976;-91
2022/04/20 09:44:41;;;;;;;;;;;;;;;15.86;60.07;99445.00;4308442;33;20118;-92
2022/04/20 09:49:57;;;;;;;;;;;;;;;16.54;60.10;99439.16;4322297;33;20002;-91
2022/04/20 09:52:34;;;;;;;;;;;;;;;16.57;60.10;99446.88;4320452;33;19980;-92
2022/04/20 09:55:00;;;;;;;;;;;;;;;16.95;60.12;99441.03;4320444;33;19992;-92
2022/04/20 09:57:25;;;;;;;;;;;;;;;17.12;60.13;99435.56;4308019;33;20648;-92
2022/04/20 09:59:54;;;;;;;;;;;;;;;16.80;60.11;99440.25;4309509;33;20709;-92
2022/04/20 10:02:19;;;;;;;;;;;;;;;16.83;60.11;99437.41;4310150;33;19992;-91
2022/04/20 10:04:46;;;;;;;;;;;;;;;16.90;60.12;99435.25;4321668;33;26624;-92
2022/04/20 10:07:11;;;;;;;;;;;;;;;17.25;60.14;99435.63;4322424;33;19992;-91
2022/04/20 10:09:37;;;;;;;;;;;;;;;17.40;60.15;99435.47;4310150;33;20018;-91
2022/04/20 10:12:02;;;;;;;;;;;;;;;17.53;60.16;99435.53;4322098;33;20302;-91
2022/04/20 10:17:11;;;;;;;;;;;;;;;17.17;60.14;99426.44;4324366;33;20002;-90
2022/04/20 10:19:37;;;;;;;;;;;;;;;17.31;60.15;99425.56;4310032;33;19992;-92
2022/04/20 10:22:03;;;;;;;;;;;;;;;17.05;60.12;99432.50;4310168;33;19979;-91
2022/04/20 10:24:28;;;;;;;;;;;;;;;17.18;60.14;99429.91;4322097;33;20006;-92
2022/04/20 10:26:54;;;;;;;;;;;;;;;16.99;60.12;99424.97;4309982;33;19987;-91
2022/04/20 10:29:24;;;;;;;;;;;;;;;17.27;60.14;99425.84;4310140;33;19995;-92
2022/04/20 10:31:49;;;;;;;;;;;;;;;17.28;60.14;99423.13;4309880;33;20028;-91
2022/04/20 10:34:15;;;;;;;;;;;;;;;17.56;60.16;99414.28;4321793;33;20322;-92
2022/04/20 10:36:40;;;;;;;;;;;;;;;17.86;60.18;99414.03;4309879;33;19988;-91
2022/04/20 10:39:22;;;;;;;;;;;;;;;18.07;60.19;99420.50;4309715;33;20032;-92
2022/04/20 10:42:06;;;;;;;;;;;;;;;17.67;60.16;99419.69;4309729;33;19980;-91
2022/04/20 10:44:50;;;;;;;;;;;;;;;17.29;60.14;99427.44;4321881;33;20011;-92
2022/04/20 10:47:20;;;;;;;;;;;;;;;16.98;60.13;99418.03;4335286;33;19980;-91
2022/04/20 10:49:45;;;;;;;;;;;;;;;16.52;60.10;99426.12;4309770;33;19988;-91
2022/04/20 10:52:29;;;;;;;;;;;;;;;16.63;60.11;99422.84;4321499;33;22120;-92
2022/04/20 10:54:56;;;;;;;;;;;;;;;16.79;60.12;99420.13;4321751;33;19983;-91
2022/04/20 10:57:34;;;;;;;;;;;;;;;17.17;60.14;99415.91;4309820;33;20470;-91
2022/04/20 11:00:19;;;;;;;;;;;;;;;17.39;60.16;99414.53;4309752;33;20637;-92
2022/04/20 11:02:50;;;;;;;;;;;;;;;17.67;60.16;99411.78;4321864;33;20038;-91
2022/04/20 11:05:18;;;;;;;;;;;;;;;17.49;60.16;99407.72;4309628;33;20031;-91
2022/04/20 11:07:59;;;;;;;;;;;;;;;17.38;60.14;99404.94;4309676;33;20567;-92
2022/04/20 11:10:24;;;;;;;;;;;;;;;17.61;60.16;99401.66;4334742;33;20334;-91
2022/04/20 11:21:06;;;;;;;;;;;;;;;16.98;60.13;99409.31;4335260;33;20046;-91
2022/04/20 11:23:50;;;;;;;;;;;;;;;16.81;60.12;99411.22;4335172;33;19980;-91
2022/04/20 11:26:22;;;;;;;;;;;;;;;16.65;60.12;99410.47;4321529;33;20002;-91
2022/04/20 11:28:47;;;;;;;;;;;;;;;16.87;60.12;99405.56;4321602;33;19991;-92
2022/04/20 11:31:13;;;;;;;;;;;;;;;17.06;60.13;99399.16;4321637;33;20014;-91
2022/04/20 11:33:38;;;;;;;;;;;;;;;17.17;60.14;99394.03;4309311;33;19972;-91
2022/04/20 11:36:03;;;;;;;;;;;;;;;17.22;60.14;99391.09;4309478;33;20325;-91
2022/04/20 11:38:40;;;;;;;;;;;;;;;17.25;60.14;99396.16;4321591;33;19992;-91
2022/04/20 11:41:05;;;;;;;;;;;;;;;17.10;60.14;99396.22;4321488;33;20062;-91
2022/04/20 11:43:31;;;;;;;;;;;;;;;17.13;60.14;99395.19;4309356;33;19988;-91
2022/04/20 11:45:56;;;;;;;;;;;;;;;17.36;60.15;99384.00;4309346;33;19992;-90
2022/04/20 11:48:21;;;;;;;;;;;;;;;17.64;60.17;99396.19;4308640;33;22715;-91
2022/04/20 11:50:55;;;;;;;;;;;;;;;17.40;60.16;99395.16;4321573;33;20028;-92
2022/04/20 11:53:20;;;;;;;;;;;;;;;17.16;60.15;99401.06;4309640;33;19980;-90
2022/04/20 11:55:46;;;;;;;;;;;;;;;17.00;60.14;99402.16;4309459;33;19979;-91
2022/04/20 11:58:15;;;;;;;;;;;;;;;16.93;60.12;99392.97;4309284;33;20000;-91
2022/04/20 12:00:41;;;;;;;;;;;;;;;16.91;60.13;99395.72;4309424;33;20693;-92
2022/04/20 12:03:06;;;;;;;;;;;;;;;17.08;60.14;99392.00;4309429;33;20748;-91
2022/04/20 12:05:31;;;;;;;;;;;;;;;17.47;60.16;99383.28;4321360;33;19983;-91
2022/04/20 12:07:57;;;;;;;;;;;;;;;17.93;60.19;99381.06;4321436;33;19976;-91
2022/04/20 12:10:22;;;;;;;;;;;;;;;17.90;60.18;99394.47;4309536;33;20043;-91
2022/04/20 12:12:48;;;;;;;;;;;;;;;17.58;60.16;99385.22;4309016;33;20351;-92
2022/04/20 12:15:13;;;;;;;;;;;;;;;17.62;60.17;99381.44;4309164;33;19983;-91
2022/04/20 12:17:38;;;;;;;;;;;;;;;17.66;60.17;99381.13;4309266;33;20008;-91
2022/04/20 12:20:04;;;;;;;;;;;;;;;17.44;60.15;99381.69;4321302;33;19987;-91
2022/04/20 12:22:30;;;;;;;;;;;;;;;17.56;60.17;99376.59;4308314;33;19979;-90
2022/04/20 12:25:11;;;;;;;;;;;;;;;17.69;60.18;99378.31;4308846;33;19984;-91
2022/04/20 12:27:52;;;;;;;;;;;;;;;17.54;60.17;99370.59;4309206;33;19996;-91
2022/04/20 12:30:33;;;;;;;;;;;;;;;17.46;60.16;99377.19;4321413;33;19999;-92
2022/04/20 12:32:59;;;;;;;;;;;;;;;17.36;60.16;99368.22;4321150;33;19991;-91
2022/04/20 12:35:25;;;;;;;;;;;;;;;17.34;60.16;99370.13;4321469;33;19988;-91
2022/04/20 12:37:52;;;;;;;;;;;;;;;17.54;60.17;99362.69;4321293;33;20384;-92
2022/04/20 12:40:18;;;;;;;;;;;;;;;17.90;60.18;99359.38;4321403;33;20349;-91
2022/04/20 12:43:05;;;;;;;;;;;;;;;18.21;60.20;99347.56;4309052;33;19975;-92
2022/04/20 12:45:32;;;;;;;;;;;;;;;18.57;60.22;99358.16;4321757;33;20044;-92
2022/04/20 12:48:10;;;;;;;;;;;;;;;18.66;60.22;99360.16;4309085;33;19967;-92
2022/04/20 12:50:37;;;;;;;;;;;;;;;18.73;60.23;99354.47;4309434;33;20014;-91
2022/04/20 12:53:02;;;;;;;;;;;;;;;18.65;60.22;99357.62;4321418;33;19995;-91
2022/04/20 12:55:34;;;;;;;;;;;;;;;18.74;60.23;99358.81;4321270;33;19975;-92
2022/04/20 13:03:34;;;;;;;;;;;;;;;18.65;60.22;99355.84;4334562;33;19991;-91
2022/04/20 13:05:59;;;;;;;;;;;;;;;18.47;60.22;99353.66;4308975;33;20011;-91
2022/04/20 13:08:26;;;;;;;;;;;;;;;18.57;60.22;99354.69;4320986;33;20266;-91
2022/04/20 13:10:51;;;;;;;;;;;;;;;18.78;60.23;99342.66;4308923;33;19999;-90
2022/04/20 13:13:16;;;;;;;;;;;;;;;18.85;60.24;99343.88;4321061;33;20019;-91
2022/04/20 13:15:42;;;;;;;;;;;;;;;19.10;60.25;99329.72;4308775;33;24788;-91
2022/04/20 13:18:09;;;;;;;;;;;;;;;19.17;60.25;99336.25;4321164;33;20266;-91
2022/04/20 13:20:34;;;;;;;;;;;;;;;19.42;60.26;99324.72;4308813;33;20062;-91
2022/04/20 13:22:59;;;;;;;;;;;;;;;19.50;60.27;99332.06;4308596;33;20243;-92
2022/04/20 13:28:09;;;;;;;;;;;;;;;19.13;60.25;99324.22;4322972;33;20563;-92
2022/04/20 13:30:39;;;;;;;;;;;;;;;18.56;60.22;99331.91;4308515;33;20000;-91
2022/04/20 13:33:11;;;;;;;;;;;;;;;18.52;60.21;99328.66;4308926;33;20039;-93
2022/04/20 13:35:36;;;;;;;;;;;;;;;18.33;60.21;99330.91;4320900;33;20015;-91